createdAt,value
2018-11-20T00:00:58.465Z,7.60
2018-11-20T00:01:58.459Z,9.30
2018-11-20T00:02:58.416Z,8.70
2018-11-20T00:03:58.395Z,8.10
2018-11-20T00:04:58.377Z,9.00
2018-11-20T00:05:58.331Z,8.90
2018-11-20T00:06:58.309Z,9.10
2018-11-20T00:07:58.288Z,9.60
2018-11-20T00:08:58.258Z,8.30
2018-11-20T00:09:58.237Z,10.10
2018-11-20T00:10:58.204Z,8.30
2018-11-20T00:11:58.186Z,9.80
2018-11-20T00:12:58.173Z,10.40
2018-11-20T00:13:58.143Z,10.10
2018-11-20T00:14:58.099Z,8.80
2018-11-20T00:15:58.078Z,9.00
2018-11-20T00:16:58.051Z,9.90
2018-11-20T00:17:58.021Z,10.60
2018-11-20T00:18:57.994Z,9.60
2018-11-20T00:19:57.969Z,9.30
2018-11-20T00:20:57.952Z,10.90
2018-11-20T00:21:57.921Z,10.00
2018-11-20T00:22:57.892Z,11.40
2018-11-20T00:23:57.892Z,9.10
2018-11-20T00:24:57.849Z,12.20
2018-11-20T00:25:57.810Z,16.80
2018-11-20T00:26:57.796Z,12.50
2018-11-20T00:27:57.758Z,11.30
2018-11-20T00:28:57.731Z,11.70
2018-11-20T00:29:57.704Z,10.90
2018-11-20T00:30:57.694Z,12.70
2018-11-20T00:31:57.681Z,11.10
2018-11-20T00:32:57.645Z,10.80
2018-11-20T00:33:57.599Z,14.60
2018-11-20T00:34:57.623Z,10.80
2018-11-20T00:35:57.546Z,10.00
2018-11-20T00:36:57.524Z,12.40
2018-11-20T00:37:57.500Z,12.10
2018-11-20T00:38:57.472Z,12.10
2018-11-20T00:39:57.454Z,10.30
2018-11-20T00:40:57.412Z,12.30
2018-11-20T00:41:57.394Z,11.30
2018-11-20T00:42:57.401Z,10.70
2018-11-20T00:43:57.344Z,15.70
2018-11-20T00:44:57.331Z,13.20
2018-11-20T00:45:57.295Z,11.90
2018-11-20T00:46:57.261Z,12.70
2018-11-20T00:47:57.232Z,11.50
2018-11-20T00:48:57.202Z,12.60
2018-11-20T00:49:57.182Z,13.90
2018-11-20T00:50:57.159Z,12.80
2018-11-20T00:51:57.129Z,13.30
2018-11-20T00:52:57.093Z,12.30
2018-11-20T00:53:57.093Z,12.30
2018-11-20T00:54:57.051Z,15.30
2018-11-20T00:55:57.018Z,12.10
2018-11-20T00:56:56.991Z,12.60
2018-11-20T00:57:56.969Z,14.20
2018-11-20T00:58:56.946Z,11.50
2018-11-20T00:59:56.913Z,11.20
2018-11-20T01:00:56.887Z,11.90
2018-11-20T01:01:56.883Z,11.80
2018-11-20T01:02:56.838Z,12.60
2018-11-20T01:03:56.820Z,12.50
2018-11-20T01:04:56.776Z,13.90
2018-11-20T01:05:56.751Z,13.80
2018-11-20T01:06:56.780Z,11.70
2018-11-20T01:07:56.699Z,14.40
2018-11-20T01:08:56.694Z,13.90
2018-11-20T01:09:56.649Z,12.50
2018-11-20T01:10:56.622Z,14.80
2018-11-20T01:11:56.601Z,14.80
2018-11-20T01:12:56.618Z,14.70
2018-11-20T01:13:56.545Z,13.60
2018-11-20T01:14:56.517Z,14.00
2018-11-20T01:15:56.484Z,15.30
2018-11-20T01:16:56.461Z,14.10
2018-11-20T01:17:56.442Z,14.20
2018-11-20T01:18:56.410Z,13.40
2018-11-20T01:19:56.385Z,14.20
2018-11-20T01:20:56.359Z,14.00
2018-11-20T01:21:56.332Z,15.30
2018-11-20T01:22:56.314Z,14.20
2018-11-20T01:23:56.279Z,13.50
2018-11-20T01:24:56.255Z,13.90
2018-11-20T01:25:56.222Z,13.60
2018-11-20T01:26:56.199Z,13.50
2018-11-20T01:27:56.182Z,15.60
2018-11-20T01:28:56.147Z,15.00
2018-11-20T01:29:56.137Z,15.20
2018-11-20T01:30:56.094Z,20.10
2018-11-20T01:31:56.073Z,19.30
2018-11-20T01:32:56.035Z,15.00
2018-11-20T01:33:56.011Z,14.70
2018-11-20T01:34:55.977Z,14.80
2018-11-20T01:35:56.008Z,15.50
2018-11-20T01:36:55.938Z,15.20
2018-11-20T01:37:55.941Z,16.00
2018-11-20T01:38:55.879Z,14.90
2018-11-20T01:39:55.884Z,15.90
2018-11-20T01:40:55.843Z,14.50
2018-11-20T01:41:55.807Z,15.20
2018-11-20T01:42:55.805Z,17.40
2018-11-20T01:43:55.769Z,14.20
2018-11-20T01:44:55.740Z,19.30
2018-11-20T01:45:55.688Z,14.20
2018-11-20T01:46:55.669Z,15.10
2018-11-20T01:47:55.639Z,16.20
2018-11-20T01:48:55.610Z,16.90
2018-11-20T01:49:55.579Z,14.90
2018-11-20T01:50:55.578Z,16.70
2018-11-20T01:51:55.568Z,15.00
2018-11-20T01:52:55.507Z,15.20
2018-11-20T01:53:55.483Z,15.50
2018-11-20T01:54:55.452Z,16.60
2018-11-20T01:55:55.418Z,17.10
2018-11-20T01:56:55.409Z,15.60
2018-11-20T01:57:55.374Z,16.40
2018-11-20T01:58:55.354Z,15.80
2018-11-20T01:59:55.332Z,16.50
2018-11-20T02:00:55.291Z,16.90
2018-11-20T02:01:55.269Z,18.30
2018-11-20T02:02:55.241Z,17.80
2018-11-20T02:03:55.263Z,18.00
2018-11-20T02:04:55.189Z,17.30
2018-11-20T02:05:55.172Z,16.30
2018-11-20T02:06:55.137Z,16.70
2018-11-20T02:07:55.106Z,17.70
2018-11-20T02:08:55.074Z,16.30
2018-11-20T02:09:55.053Z,17.30
2018-11-20T02:10:55.030Z,18.10
2018-11-20T02:11:54.996Z,16.60
2018-11-20T02:12:54.971Z,16.80
2018-11-20T02:13:54.948Z,19.10
2018-11-20T02:14:54.934Z,17.60
2018-11-20T02:15:54.890Z,19.10
2018-11-20T02:16:54.863Z,17.10
2018-11-20T02:17:54.878Z,16.70
2018-11-20T02:18:54.809Z,16.80
2018-11-20T02:19:54.804Z,18.10
2018-11-20T02:20:54.768Z,18.70
2018-11-20T02:21:54.730Z,18.00
2018-11-20T02:22:54.713Z,19.80
2018-11-20T02:23:54.687Z,18.20
2018-11-20T02:24:54.676Z,17.40
2018-11-20T02:25:54.675Z,17.40
2018-11-20T02:26:54.615Z,17.70
2018-11-20T02:27:54.601Z,17.30
2018-11-20T02:28:54.549Z,20.20
2018-11-20T02:29:54.523Z,16.90
2018-11-20T02:30:54.492Z,19.10
2018-11-20T02:31:54.486Z,17.10
2018-11-20T02:32:54.465Z,16.90
2018-11-20T02:33:54.438Z,18.30
2018-11-20T02:34:54.393Z,17.40
2018-11-20T02:35:54.388Z,18.90
2018-11-20T02:36:54.332Z,18.10
2018-11-20T02:37:54.303Z,18.20
2018-11-20T02:38:54.286Z,17.80
2018-11-20T02:39:54.258Z,18.00
2018-11-20T02:40:54.226Z,16.00
2018-11-20T02:41:54.208Z,16.20
2018-11-20T02:42:54.174Z,17.90
2018-11-20T02:43:54.146Z,17.20
2018-11-20T02:44:54.121Z,17.50
2018-11-20T02:45:54.153Z,16.90
2018-11-20T02:46:54.069Z,18.60
2018-11-20T02:47:54.061Z,16.40
2018-11-20T02:48:54.026Z,18.10
2018-11-20T02:49:53.988Z,18.60
2018-11-20T02:50:54.426Z,16.80
2018-11-20T02:51:53.936Z,16.90
2018-11-20T02:52:53.907Z,16.90
2018-11-20T02:53:53.880Z,18.30
2018-11-20T02:54:53.884Z,18.50
2018-11-20T02:55:53.859Z,17.00
2018-11-20T02:56:53.807Z,15.80
2018-11-20T02:57:53.821Z,17.50
2018-11-20T02:58:53.745Z,16.90
2018-11-20T02:59:53.739Z,17.30
2018-11-20T03:00:53.696Z,15.60
2018-11-20T03:01:53.687Z,17.40
2018-11-20T03:02:53.646Z,16.20
2018-11-20T03:03:53.716Z,15.60
2018-11-20T03:04:53.583Z,17.90
2018-11-20T03:05:53.564Z,15.40
2018-11-20T03:06:53.529Z,15.70
2018-11-20T03:07:53.508Z,16.80
2018-11-20T03:08:53.523Z,15.00
2018-11-20T03:09:53.479Z,16.30
2018-11-20T03:10:53.426Z,15.20
2018-11-20T03:11:53.397Z,15.90
2018-11-20T03:12:53.375Z,15.10
2018-11-20T03:13:53.353Z,16.60
2018-11-20T03:14:53.322Z,16.70
2018-11-20T03:15:53.293Z,16.60
2018-11-20T03:16:53.287Z,17.30
2018-11-20T03:17:53.247Z,16.40
2018-11-20T03:18:53.214Z,14.80
2018-11-20T03:19:53.203Z,14.10
2018-11-20T03:20:53.157Z,16.60
2018-11-20T03:21:53.134Z,16.60
2018-11-20T03:22:53.126Z,15.80
2018-11-20T03:23:53.087Z,16.70
2018-11-20T03:24:53.054Z,16.40
2018-11-20T03:25:53.036Z,15.90
2018-11-20T03:26:53.040Z,16.30
2018-11-20T03:27:52.976Z,16.30
2018-11-20T03:28:52.959Z,15.50
2018-11-20T03:29:52.920Z,15.70
2018-11-20T03:30:52.894Z,15.70
2018-11-20T03:31:52.871Z,16.30
2018-11-20T03:32:52.842Z,16.80
2018-11-20T03:33:52.813Z,16.60
2018-11-20T03:34:52.795Z,16.30
2018-11-20T03:35:52.765Z,15.60
2018-11-20T03:36:52.734Z,16.20
2018-11-20T03:37:52.712Z,16.30
2018-11-20T03:38:52.688Z,16.20
2018-11-20T03:39:52.667Z,16.40
2018-11-20T03:40:52.631Z,15.20
2018-11-20T03:41:52.609Z,15.00
2018-11-20T03:42:52.579Z,15.10
2018-11-20T03:43:52.562Z,14.80
2018-11-20T03:44:52.533Z,16.90
2018-11-20T03:45:52.504Z,17.40
2018-11-20T03:46:52.475Z,14.50
2018-11-20T03:47:52.511Z,13.90
2018-11-20T03:48:52.421Z,14.80
2018-11-20T03:49:52.396Z,16.00
2018-11-20T03:50:52.373Z,17.60
2018-11-20T03:51:52.341Z,15.20
2018-11-20T03:52:52.311Z,15.80
2018-11-20T03:53:52.293Z,15.80
2018-11-20T03:54:52.265Z,15.90
2018-11-20T03:55:52.233Z,17.50
2018-11-20T03:56:52.215Z,16.00
2018-11-20T03:57:52.181Z,16.40
2018-11-20T03:58:52.153Z,15.50
2018-11-20T03:59:52.129Z,16.70
2018-11-20T04:00:52.101Z,16.60
2018-11-20T04:01:52.091Z,14.80
2018-11-20T04:02:52.094Z,15.90
2018-11-20T04:03:52.031Z,15.30
2018-11-20T04:04:52.004Z,14.70
2018-11-20T04:05:51.970Z,15.70
2018-11-20T04:06:51.941Z,15.20
2018-11-20T04:07:51.920Z,16.70
2018-11-20T04:08:51.895Z,16.10
2018-11-20T04:09:51.875Z,16.20
2018-11-20T04:10:51.909Z,15.60
2018-11-20T04:11:51.841Z,14.00
2018-11-20T04:12:51.808Z,16.80
2018-11-20T04:13:51.768Z,16.00
2018-11-20T04:14:51.738Z,17.00
2018-11-20T04:15:51.718Z,15.40
2018-11-20T04:16:51.687Z,16.80
2018-11-20T04:17:51.743Z,15.10
2018-11-20T04:18:51.636Z,16.30
2018-11-20T04:19:51.606Z,15.60
2018-11-20T04:20:51.580Z,17.60
2018-11-20T04:21:51.556Z,16.60
2018-11-20T04:22:51.521Z,15.10
2018-11-20T04:23:51.516Z,16.80
2018-11-20T04:24:51.474Z,14.80
2018-11-20T04:25:51.446Z,17.10
2018-11-20T04:26:51.416Z,17.50
2018-11-20T04:27:51.400Z,14.90
2018-11-20T04:28:51.362Z,17.40
2018-11-20T04:29:51.337Z,15.30
2018-11-20T04:30:51.318Z,14.60
2018-11-20T04:31:51.285Z,16.20
2018-11-20T04:32:51.259Z,15.30
2018-11-20T04:33:51.245Z,16.30
2018-11-20T04:34:51.208Z,17.20
2018-11-20T04:35:51.181Z,16.40
2018-11-20T04:36:51.163Z,19.00
2018-11-20T04:37:51.153Z,16.10
2018-11-20T04:38:51.105Z,17.90
2018-11-20T04:39:51.081Z,16.40
2018-11-20T04:40:51.053Z,15.10
2018-11-20T04:41:51.026Z,17.80
2018-11-20T04:42:51.005Z,15.60
2018-11-20T04:43:50.977Z,16.90
2018-11-20T04:44:50.971Z,15.10
2018-11-20T04:45:50.928Z,16.60
2018-11-20T04:46:50.897Z,17.10
2018-11-20T04:47:50.867Z,17.70
2018-11-20T04:48:50.850Z,15.70
2018-11-20T04:49:50.872Z,16.80
2018-11-20T04:50:50.792Z,16.50
2018-11-20T04:51:50.772Z,15.60
2018-11-20T04:52:50.747Z,16.50
2018-11-20T04:53:50.712Z,16.40
2018-11-20T04:54:50.731Z,16.10
2018-11-20T04:55:50.696Z,16.30
2018-11-20T04:56:50.638Z,16.30
2018-11-20T04:57:50.615Z,15.90
2018-11-20T04:58:50.606Z,16.60
2018-11-20T04:59:50.571Z,16.70
2018-11-20T05:00:50.539Z,14.70
2018-11-20T05:01:50.521Z,16.00
2018-11-20T05:02:50.482Z,16.40
2018-11-20T05:03:50.457Z,17.00
2018-11-20T05:04:50.428Z,16.20
2018-11-20T05:05:50.415Z,15.90
2018-11-20T05:06:50.451Z,14.50
2018-11-20T05:07:50.352Z,15.10
2018-11-20T05:08:50.323Z,17.90
2018-11-20T05:09:50.304Z,15.60
2018-11-20T05:10:50.268Z,16.00
2018-11-20T05:11:50.265Z,14.40
2018-11-20T05:12:50.220Z,15.60
2018-11-20T05:13:50.193Z,14.40
2018-11-20T05:14:50.168Z,15.90
2018-11-20T05:15:50.144Z,15.10
2018-11-20T05:16:50.117Z,16.60
2018-11-20T05:17:50.092Z,16.30
2018-11-20T05:18:50.064Z,15.20
2018-11-20T05:19:50.057Z,15.70
2018-11-20T05:20:50.022Z,15.30
2018-11-20T05:21:50.030Z,16.30
2018-11-20T05:22:49.975Z,16.00
2018-11-20T05:23:49.962Z,14.50
2018-11-20T05:24:49.924Z,15.40
2018-11-20T05:25:49.892Z,15.30
2018-11-20T05:26:49.877Z,15.20
2018-11-20T05:27:49.831Z,15.40
2018-11-20T05:28:49.826Z,15.30
2018-11-20T05:29:49.793Z,14.60
2018-11-20T05:30:49.796Z,16.70
2018-11-20T05:31:49.731Z,15.00
2018-11-20T05:32:49.709Z,15.00
2018-11-20T05:33:49.676Z,15.80
2018-11-20T05:34:49.668Z,16.90
2018-11-20T05:35:49.628Z,17.40
2018-11-20T05:36:49.605Z,15.30
2018-11-20T05:37:49.574Z,14.80
2018-11-20T05:38:49.580Z,16.70
2018-11-20T05:39:49.538Z,15.80
2018-11-20T05:40:49.500Z,16.70
2018-11-20T05:41:49.462Z,16.50
2018-11-20T05:42:49.479Z,16.60
2018-11-20T05:43:49.413Z,16.20
2018-11-20T05:44:49.393Z,16.50
2018-11-20T05:45:49.371Z,15.90
2018-11-20T05:46:49.362Z,15.10
2018-11-20T05:47:49.313Z,16.80
2018-11-20T05:48:49.287Z,16.70
2018-11-20T05:49:49.258Z,15.80
2018-11-20T05:50:49.236Z,15.70
2018-11-20T05:51:49.211Z,18.10
2018-11-20T05:52:49.184Z,16.20
2018-11-20T05:53:49.150Z,16.30
2018-11-20T05:54:49.152Z,15.50
2018-11-20T05:55:49.110Z,16.40
2018-11-20T05:56:49.075Z,17.30
2018-11-20T05:57:49.067Z,14.50
2018-11-20T05:58:49.027Z,13.70
2018-11-20T05:59:48.992Z,14.00
2018-11-20T06:00:48.974Z,15.40
2018-11-20T06:01:48.951Z,17.40
2018-11-20T06:02:48.919Z,16.40
2018-11-20T06:03:48.893Z,17.40
2018-11-20T06:04:48.874Z,17.30
2018-11-20T06:05:48.887Z,17.20
2018-11-20T06:06:48.816Z,16.80
2018-11-20T06:07:48.785Z,16.00
2018-11-20T06:08:48.807Z,16.30
2018-11-20T06:09:48.735Z,15.80
2018-11-20T06:10:48.723Z,16.80
2018-11-20T06:11:48.684Z,16.10
2018-11-20T06:12:48.765Z,16.50
2018-11-20T06:13:48.639Z,14.80
2018-11-20T06:14:48.613Z,18.30
2018-11-20T06:15:48.581Z,17.40
2018-11-20T06:16:48.592Z,17.80
2018-11-20T06:17:48.556Z,16.10
2018-11-20T06:18:48.547Z,17.70
2018-11-20T06:19:48.482Z,17.40
2018-11-20T06:20:48.455Z,17.60
2018-11-20T06:21:48.430Z,15.50
2018-11-20T06:22:48.408Z,18.80
2018-11-20T06:23:48.380Z,15.00
2018-11-20T06:24:48.353Z,17.20
2018-11-20T06:25:48.368Z,17.10
2018-11-20T06:26:48.324Z,16.50
2018-11-20T06:27:48.283Z,14.90
2018-11-20T06:28:48.458Z,16.40
2018-11-20T06:29:48.256Z,18.20
2018-11-20T06:30:48.221Z,17.60
2018-11-20T06:31:48.173Z,19.00
2018-11-20T06:32:48.160Z,18.00
2018-11-20T06:33:48.111Z,19.50
2018-11-20T06:34:48.113Z,19.40
2018-11-20T06:35:48.089Z,18.00
2018-11-20T06:36:48.036Z,17.50
2018-11-20T06:37:48.019Z,17.60
2018-11-20T06:38:47.988Z,18.50
2018-11-20T06:39:47.955Z,16.60
2018-11-20T06:40:47.960Z,17.80
2018-11-20T06:41:47.931Z,18.30
2018-11-20T06:42:47.880Z,17.70
2018-11-20T06:43:47.882Z,19.90
2018-11-20T06:44:47.832Z,20.40
2018-11-20T06:45:47.802Z,18.80
2018-11-20T06:46:47.810Z,18.70
2018-11-20T06:47:47.757Z,19.80
2018-11-20T06:48:47.739Z,19.20
2018-11-20T06:49:47.710Z,17.50
2018-11-20T06:50:47.680Z,17.00
2018-11-20T06:51:47.655Z,18.20
2018-11-20T06:52:47.696Z,17.10
2018-11-20T06:53:47.595Z,19.20
2018-11-20T06:54:47.572Z,18.30
2018-11-20T06:55:47.540Z,18.60
2018-11-20T06:56:47.522Z,18.00
2018-11-20T06:57:47.507Z,19.20
2018-11-20T06:58:47.470Z,18.60
2018-11-20T06:59:47.444Z,19.10
2018-11-20T07:00:47.427Z,19.50
2018-11-20T07:01:47.399Z,17.50
2018-11-20T07:02:47.365Z,19.20
2018-11-20T07:03:47.339Z,19.90
2018-11-20T07:04:47.309Z,19.80
2018-11-20T07:05:47.281Z,17.30
2018-11-20T07:06:47.263Z,16.70
2018-11-20T07:07:47.307Z,18.80
2018-11-20T07:08:47.355Z,18.50
2018-11-20T07:09:47.180Z,20.50
2018-11-20T07:10:47.151Z,20.80
2018-11-20T07:11:47.136Z,20.30
2018-11-20T07:12:47.108Z,19.50
2018-11-20T07:13:47.085Z,17.40
2018-11-20T07:14:47.054Z,16.40
2018-11-20T07:15:47.211Z,19.20
2018-11-20T07:16:47.017Z,17.00
2018-11-20T07:17:46.981Z,21.50
2018-11-20T07:18:46.967Z,19.20
2018-11-20T07:19:46.925Z,19.10
2018-11-20T07:20:46.921Z,19.30
2018-11-20T07:21:46.871Z,19.10
2018-11-20T07:22:46.855Z,19.40
2018-11-20T07:23:46.826Z,19.80
2018-11-20T07:24:46.854Z,19.60
2018-11-20T07:25:46.766Z,19.10
2018-11-20T07:26:46.743Z,18.40
2018-11-20T07:27:46.721Z,19.50
2018-11-20T07:28:46.694Z,20.60
2018-11-20T07:29:46.827Z,19.40
2018-11-20T07:30:46.651Z,18.00
2018-11-20T07:31:46.683Z,19.90
2018-11-20T07:32:46.588Z,17.70
2018-11-20T07:33:46.561Z,18.50
2018-11-20T07:34:46.545Z,20.70
2018-11-20T07:35:46.512Z,21.90
2018-11-20T07:36:46.557Z,20.50
2018-11-20T07:37:46.470Z,20.00
2018-11-20T07:38:46.428Z,18.70
2018-11-20T07:39:46.408Z,19.40
2018-11-20T07:40:46.381Z,17.80
2018-11-20T07:41:46.370Z,21.30
2018-11-20T07:42:46.333Z,19.20
2018-11-20T07:43:46.413Z,21.00
2018-11-20T07:44:46.277Z,20.20
2018-11-20T07:45:46.253Z,18.00
2018-11-20T07:46:46.225Z,23.20
2018-11-20T07:47:46.233Z,22.30
2018-11-20T07:48:46.176Z,19.20
2018-11-20T07:49:46.146Z,20.20
2018-11-20T07:50:46.121Z,20.30
2018-11-20T07:51:46.096Z,19.10
2018-11-20T07:52:46.074Z,20.20
2018-11-20T07:53:46.041Z,19.50
2018-11-20T07:54:46.029Z,20.30
2018-11-20T07:55:46.008Z,20.60
2018-11-20T07:56:45.963Z,19.90
2018-11-20T07:57:45.938Z,21.30
2018-11-20T07:58:45.931Z,20.00
2018-11-20T07:59:45.895Z,22.00
2018-11-20T08:00:45.860Z,19.90
2018-11-20T08:01:45.849Z,20.60
2018-11-20T08:02:45.808Z,24.00
2018-11-20T08:03:45.784Z,20.70
2018-11-20T08:04:45.758Z,18.00
2018-11-20T08:05:45.732Z,21.60
2018-11-20T08:06:45.715Z,22.00
2018-11-20T08:07:45.679Z,18.20
2018-11-20T08:08:45.653Z,22.10
2018-11-20T08:09:45.650Z,18.90
2018-11-20T08:10:45.608Z,21.40
2018-11-20T08:11:45.572Z,22.90
2018-11-20T08:12:45.564Z,23.80
2018-11-20T08:13:45.549Z,18.90
2018-11-20T08:14:45.499Z,21.70
2018-11-20T08:15:45.500Z,21.40
2018-11-20T08:16:45.466Z,19.50
2018-11-20T08:17:45.424Z,22.70
2018-11-20T08:18:45.401Z,20.80
2018-11-20T08:19:45.374Z,23.50
2018-11-20T08:20:45.370Z,21.70
2018-11-20T08:21:45.318Z,21.10
2018-11-20T08:22:45.293Z,23.40
2018-11-20T08:23:46.940Z,21.80
2018-11-20T08:24:45.246Z,22.70
2018-11-20T08:25:45.287Z,22.00
2018-11-20T08:26:45.200Z,20.50
2018-11-20T08:27:45.169Z,20.00
2018-11-20T08:28:45.175Z,21.50
2018-11-20T08:29:45.125Z,22.40
2018-11-20T08:30:45.130Z,21.80
2018-11-20T08:31:45.068Z,22.50
2018-11-20T08:32:45.041Z,22.50
2018-11-20T08:33:45.066Z,21.10
2018-11-20T08:34:44.991Z,20.30
2018-11-20T08:35:44.989Z,24.10
2018-11-20T08:36:44.935Z,22.00
2018-11-20T08:37:44.914Z,22.20
2018-11-20T08:38:44.878Z,23.20
2018-11-20T08:39:44.857Z,22.00
2018-11-20T08:40:44.845Z,22.20
2018-11-20T08:41:44.821Z,22.90
2018-11-20T08:42:44.785Z,21.90
2018-11-20T08:43:44.760Z,23.10
2018-11-20T08:44:44.736Z,21.20
2018-11-20T08:45:44.711Z,23.40
2018-11-20T08:46:44.682Z,23.00
2018-11-20T08:47:44.681Z,21.00
2018-11-20T08:48:44.654Z,23.10
2018-11-20T08:49:44.618Z,22.20
2018-11-20T08:50:44.579Z,21.70
2018-11-20T08:51:44.561Z,21.30
2018-11-20T08:52:44.540Z,21.90
2018-11-20T08:53:44.574Z,20.80
2018-11-20T08:54:44.476Z,18.90
2018-11-20T08:55:44.454Z,21.50
2018-11-20T08:56:44.422Z,23.10
2018-11-20T08:57:44.405Z,23.40
2018-11-20T08:58:44.373Z,22.10
2018-11-20T08:59:44.353Z,23.10
2018-11-20T09:00:44.647Z,22.20
2018-11-20T09:01:44.305Z,19.80
2018-11-20T09:02:44.366Z,22.10
2018-11-20T09:03:44.248Z,19.40
2018-11-20T09:04:44.230Z,21.40
2018-11-20T09:05:44.201Z,21.20
2018-11-20T09:06:44.173Z,21.10
2018-11-20T09:07:44.169Z,20.10
2018-11-20T09:08:44.120Z,20.80
2018-11-20T09:09:44.111Z,21.20
2018-11-20T09:10:44.072Z,20.60
2018-11-20T09:11:44.068Z,24.40
2018-11-20T09:12:44.027Z,20.20
2018-11-20T09:13:43.992Z,24.50
2018-11-20T09:14:43.974Z,19.60
2018-11-20T09:15:43.946Z,24.80
2018-11-20T09:16:43.919Z,22.40
2018-11-20T09:17:43.908Z,19.90
2018-11-20T09:18:43.871Z,21.30
2018-11-20T09:19:43.845Z,21.90
2018-11-20T09:20:43.820Z,22.20
2018-11-20T09:21:43.793Z,22.30
2018-11-20T09:22:43.765Z,20.50
2018-11-20T09:23:43.740Z,21.30
2018-11-20T09:24:43.718Z,19.50
2018-11-20T09:25:43.742Z,21.00
2018-11-20T09:26:43.661Z,22.40
2018-11-20T09:27:43.646Z,20.30
2018-11-20T09:28:43.616Z,21.40
2018-11-20T09:29:43.586Z,21.10
2018-11-20T09:30:43.573Z,26.00
2018-11-20T09:31:43.542Z,21.20
2018-11-20T09:32:43.513Z,23.10
2018-11-20T09:33:43.526Z,21.70
2018-11-20T09:34:43.485Z,20.80
2018-11-20T09:35:43.542Z,21.00
2018-11-20T09:36:43.412Z,20.90
2018-11-20T09:37:43.388Z,21.80
2018-11-20T09:38:43.362Z,20.70
2018-11-20T09:39:43.334Z,20.80
2018-11-20T09:40:43.312Z,20.10
2018-11-20T09:41:43.394Z,22.20
2018-11-20T09:42:43.259Z,21.70
2018-11-20T09:43:43.267Z,21.00
2018-11-20T09:44:43.215Z,22.00
2018-11-20T09:45:43.187Z,19.20
2018-11-20T09:46:43.253Z,22.60
2018-11-20T09:47:43.140Z,22.90
2018-11-20T09:48:43.111Z,20.80
2018-11-20T09:49:43.091Z,20.10
2018-11-20T09:50:43.058Z,22.00
2018-11-20T09:51:43.036Z,22.80
2018-11-20T09:52:43.117Z,21.30
2018-11-20T09:53:42.990Z,22.50
2018-11-20T09:54:42.974Z,20.40
2018-11-20T09:55:42.936Z,20.50
2018-11-20T09:56:42.908Z,21.10
2018-11-20T09:57:42.891Z,21.00
2018-11-20T09:58:42.857Z,21.40
2018-11-20T09:59:42.868Z,21.60
2018-11-20T10:00:42.815Z,20.80
2018-11-20T10:01:42.839Z,22.10
2018-11-20T10:02:42.762Z,19.00
2018-11-20T10:03:42.771Z,23.00
2018-11-20T10:04:42.711Z,20.30
2018-11-20T10:05:42.690Z,20.90
2018-11-20T10:06:42.676Z,19.70
2018-11-20T10:07:42.639Z,21.50
2018-11-20T10:08:42.675Z,21.80
2018-11-20T10:09:42.594Z,20.20
2018-11-20T10:10:42.598Z,23.40
2018-11-20T10:11:42.546Z,18.90
2018-11-20T10:12:42.512Z,21.70
2018-11-20T10:13:42.566Z,19.80
2018-11-20T10:14:42.545Z,21.80
2018-11-20T10:15:42.471Z,22.50
2018-11-20T10:16:42.512Z,22.60
2018-11-20T10:17:42.404Z,23.10
2018-11-20T10:18:42.363Z,21.40
2018-11-20T10:19:42.339Z,19.20
2018-11-20T10:20:42.345Z,21.50
2018-11-20T10:21:42.438Z,21.30
2018-11-20T10:22:42.273Z,20.90
2018-11-20T10:23:42.311Z,19.60
2018-11-20T10:24:42.283Z,20.10
2018-11-20T10:25:42.498Z,21.00
2018-11-20T10:26:42.174Z,22.40
2018-11-20T10:27:42.142Z,21.10
2018-11-20T10:28:42.160Z,21.90
2018-11-20T10:29:42.089Z,20.90
2018-11-20T10:30:42.068Z,23.10
2018-11-20T10:31:42.065Z,22.50
2018-11-20T10:32:50.763Z,21.90
2018-11-20T10:33:42.083Z,20.60
2018-11-20T10:34:42.172Z,22.10
2018-11-20T10:35:41.954Z,19.60
2018-11-20T10:36:41.950Z,18.60
2018-11-20T10:37:41.940Z,19.50
2018-11-20T10:38:41.883Z,21.30
2018-11-20T10:39:41.845Z,20.90
2018-11-20T10:40:41.894Z,20.70
2018-11-20T10:41:41.932Z,20.90
2018-11-20T10:42:41.786Z,22.80
2018-11-20T10:43:41.844Z,20.60
2018-11-20T10:44:41.746Z,22.70
2018-11-20T10:45:41.716Z,19.30
2018-11-20T10:46:41.809Z,22.60
2018-11-20T10:47:41.650Z,20.00
2018-11-20T10:48:41.650Z,20.30
2018-11-20T10:49:41.619Z,19.80
2018-11-20T10:50:41.575Z,20.20
2018-11-20T10:51:41.589Z,19.70
2018-11-20T10:52:41.667Z,18.50
2018-11-20T10:53:41.501Z,18.10
2018-11-20T10:54:41.496Z,20.00
2018-11-20T10:55:41.458Z,23.00
2018-11-20T10:56:41.527Z,21.40
2018-11-20T10:57:41.455Z,17.40
2018-11-20T10:58:41.394Z,19.50
2018-11-20T10:59:41.439Z,21.20
2018-11-20T11:00:41.342Z,20.00
2018-11-20T11:01:41.386Z,17.40
2018-11-20T11:02:42.212Z,18.30
2018-11-20T11:03:41.254Z,18.00
2018-11-20T11:04:41.258Z,20.70
2018-11-20T11:05:41.207Z,19.80
2018-11-20T11:06:41.542Z,20.70
2018-11-20T11:07:41.311Z,20.60
2018-11-20T11:08:41.162Z,23.30
2018-11-20T11:09:41.195Z,19.70
2018-11-20T11:10:41.088Z,18.60
2018-11-20T11:11:41.125Z,18.40
2018-11-20T11:12:41.161Z,19.70
2018-11-20T11:13:41.047Z,19.40
2018-11-20T11:14:41.086Z,22.30
2018-11-20T11:15:40.966Z,21.70
2018-11-20T11:16:40.957Z,18.50
2018-11-20T11:17:40.938Z,19.60
2018-11-20T11:18:40.902Z,17.40
2018-11-20T11:19:40.878Z,21.00
2018-11-20T11:20:40.963Z,19.60
2018-11-20T11:21:40.817Z,20.70
2018-11-20T11:22:40.861Z,19.40
2018-11-20T11:23:40.803Z,18.90
2018-11-20T11:24:40.756Z,19.70
2018-11-20T11:25:40.755Z,18.30
2018-11-20T11:26:40.719Z,20.40
2018-11-20T11:27:40.702Z,18.90
2018-11-20T11:28:40.698Z,19.50
2018-11-20T11:29:40.632Z,20.30
2018-11-20T11:30:40.624Z,19.60
2018-11-20T11:31:40.595Z,21.50
2018-11-20T11:32:40.549Z,20.90
2018-11-20T11:33:40.538Z,19.90
2018-11-20T11:34:40.505Z,18.10
2018-11-20T11:35:40.490Z,19.70
2018-11-20T11:36:40.519Z,22.50
2018-11-20T11:37:40.445Z,18.70
2018-11-20T11:38:40.413Z,17.40
2018-11-20T11:39:40.390Z,18.30
2018-11-20T11:40:40.365Z,19.40
2018-11-20T11:41:40.339Z,18.40
2018-11-20T11:42:40.348Z,19.80
2018-11-20T11:43:40.346Z,20.10
2018-11-20T11:44:40.257Z,19.40
2018-11-20T11:45:40.250Z,18.40
2018-11-20T11:46:40.213Z,21.10
2018-11-20T11:47:40.186Z,17.30
2018-11-20T11:48:40.197Z,20.10
2018-11-20T11:49:40.197Z,16.90
2018-11-20T11:50:40.137Z,19.30
2018-11-20T11:51:40.089Z,18.10
2018-11-20T11:52:40.084Z,19.50
2018-11-20T11:53:40.046Z,18.10
2018-11-20T11:54:40.032Z,20.90
2018-11-20T11:55:40.012Z,19.50
2018-11-20T11:56:39.965Z,19.40
2018-11-20T11:57:39.969Z,22.70
2018-11-20T11:58:39.943Z,17.70
2018-11-20T11:59:39.950Z,17.70
2018-11-20T12:00:39.882Z,17.00
2018-11-20T12:03:39.827Z,19.20
2018-11-20T12:04:39.809Z,19.90
2018-11-20T12:05:39.802Z,16.80
2018-11-20T12:06:39.731Z,19.00
2018-11-20T12:07:39.773Z,18.70
2018-11-20T12:08:39.721Z,18.50
2018-11-20T12:09:39.695Z,17.80
2018-11-20T12:10:39.664Z,17.80
2018-11-20T12:11:39.630Z,17.90
2018-11-20T12:12:39.611Z,17.90
2018-11-20T12:13:39.572Z,19.50
2018-11-20T12:14:39.605Z,20.10
2018-11-20T12:15:39.513Z,20.50
2018-11-20T12:16:39.533Z,22.70
2018-11-20T12:17:39.483Z,21.90
2018-11-20T12:18:39.445Z,17.40
2018-11-20T12:19:39.437Z,19.90
2018-11-20T12:20:43.270Z,21.70
2018-11-20T12:21:39.408Z,19.20
2018-11-20T12:22:39.364Z,22.20
2018-11-20T12:23:39.336Z,20.80
2018-11-20T12:24:39.301Z,24.50
2018-11-20T12:25:39.276Z,19.50
2018-11-20T12:26:39.329Z,20.40
2018-11-20T12:27:40.441Z,18.50
2018-11-20T12:28:39.234Z,18.90
2018-11-20T12:29:39.189Z,21.60
2018-11-20T12:30:39.153Z,20.00
2018-11-20T12:31:39.147Z,22.90
2018-11-20T12:32:39.120Z,22.80
2018-11-20T12:33:39.120Z,19.90
2018-11-20T12:34:39.066Z,20.40
2018-11-20T12:35:39.064Z,23.50
2018-11-20T12:36:39.023Z,20.40
2018-11-20T12:37:40.880Z,21.30
2018-11-20T12:38:39.000Z,21.10
2018-11-20T12:39:40.807Z,20.00
2018-11-20T12:40:38.939Z,21.30
2018-11-20T12:41:38.901Z,21.30
2018-11-20T12:42:41.003Z,24.80
2018-11-20T12:43:38.879Z,22.30
2018-11-20T12:44:38.830Z,21.90
2018-11-20T12:45:38.820Z,22.10
2018-11-20T12:46:38.768Z,22.90
2018-11-20T12:47:40.533Z,21.80
2018-11-20T12:48:40.359Z,20.40
2018-11-20T12:49:38.725Z,22.80
2018-11-20T12:50:38.703Z,21.70
2018-11-20T12:51:38.650Z,23.10
2018-11-20T12:52:38.668Z,20.90
2018-11-20T12:53:40.687Z,23.60
2018-11-20T12:54:38.595Z,21.30
2018-11-20T12:55:38.638Z,22.00